sensor_id;sensor_type;location;lat;lon;timestamp;temperature;humidity
3017;DHT22;1518;52.408;13.060;2022-10-17T00:02:38;13.90;99.90
3017;DHT22;1518;52.408;13.060;2022-10-17T00:05:26;14.00;99.90
3017;DHT22;1518;52.408;13.060;2022-10-17T00:08:16;14.10;99.90
3017;DHT22;1518;52.408;13.060;2022-10-17T00:11:07;14.00;99.90
3017;DHT22;1518;52.408;13.060;2022-10-17T00:13:55;13.90;99.90
3017;DHT22;1518;52.408;13.060;2022-10-17T00:16:43;13.90;99.90
3017;DHT22;1518;52.408;13.060;2022-10-17T00:19:33;13.90;99.90
3017;DHT22;1518;52.408;13.060;2022-10-17T00:22:21;13.90;99.90
3017;DHT22;1518;52.408;13.060;2022-10-17T00:25:09;13.90;99.90
3017;DHT22;1518;52.408;13.060;2022-10-17T00:27:57;13.90;99.90
3017;DHT22;1518;52.408;13.060;2022-10-17T00:30:45;13.80;99.90
3017;DHT22;1518;52.408;13.060;2022-10-17T00:33:41;13.90;99.90
3017;DHT22;1518;52.408;13.060;2022-10-17T00:36:31;14.00;99.90
3017;DHT22;1518;52.408;13.060;2022-10-17T00:39:20;14.00;99.90
3017;DHT22;1518;52.408;13.060;2022-10-17T00:42:10;14.00;99.90
3017;DHT22;1518;52.408;13.060;2022-10-17T00:45:09;14.00;99.90
3017;DHT22;1518;52.408;13.060;2022-10-17T00:48:03;14.00;99.90
3017;DHT22;1518;52.408;13.060;2022-10-17T00:50:52;14.10;99.90
3017;DHT22;1518;52.408;13.060;2022-10-17T00:53:41;14.10;99.90
3017;DHT22;1518;52.408;13.060;2022-10-17T00:56:30;14.10;99.90
3017;DHT22;1518;52.408;13.060;2022-10-17T00:59:19;14.00;99.90
3017;DHT22;1518;52.408;13.060;2022-10-17T01:02:10;14.00;99.90
3017;DHT22;1518;52.408;13.060;2022-10-17T01:04:59;14.10;99.90
3017;DHT22;1518;52.408;13.060;2022-10-17T01:07:49;13.90;99.90
3017;DHT22;1518;52.408;13.060;2022-10-17T01:11:00;13.90;99.90
3017;DHT22;1518;52.408;13.060;2022-10-17T01:13:56;13.90;99.90
3017;DHT22;1518;52.408;13.060;2022-10-17T01:16:52;13.80;99.90
3017;DHT22;1518;52.408;13.060;2022-10-17T01:19:58;13.80;99.90
3017;DHT22;1518;52.408;13.060;2022-10-17T01:23:01;13.80;99.90
3017;DHT22;1518;52.408;13.060;2022-10-17T01:25:58;13.80;99.90
3017;DHT22;1518;52.408;13.060;2022-10-17T01:29:08;13.70;99.90
3017;DHT22;1518;52.408;13.060;2022-10-17T01:32:01;13.70;99.90
3017;DHT22;1518;52.408;13.060;2022-10-17T01:34:56;13.70;99.90
3017;DHT22;1518;52.408;13.060;2022-10-17T01:37:48;13.70;99.90
3017;DHT22;1518;52.408;13.060;2022-10-17T01:40:42;13.60;99.90
3017;DHT22;1518;52.408;13.060;2022-10-17T01:43:36;13.60;99.90
3017;DHT22;1518;52.408;13.060;2022-10-17T01:46:27;13.60;99.90
3017;DHT22;1518;52.408;13.060;2022-10-17T01:49:24;13.40;99.90
3017;DHT22;1518;52.408;13.060;2022-10-17T01:52:16;13.60;99.90
3017;DHT22;1518;52.408;13.060;2022-10-17T01:55:08;13.50;99.90
3017;DHT22;1518;52.408;13.060;2022-10-17T01:58:08;13.50;99.90
3017;DHT22;1518;52.408;13.060;2022-10-17T02:00:59;13.50;99.90
3017;DHT22;1518;52.408;13.060;2022-10-17T02:03:50;13.50;99.90
3017;DHT22;1518;52.408;13.060;2022-10-17T02:06:40;13.50;99.90
3017;DHT22;1518;52.408;13.060;2022-10-17T02:09:28;13.50;99.90
3017;DHT22;1518;52.408;13.060;2022-10-17T02:12:36;13.50;99.90
3017;DHT22;1518;52.408;13.060;2022-10-17T02:15:46;13.50;99.90
3017;DHT22;1518;52.408;13.060;2022-10-17T02:18:48;13.50;99.90
3017;DHT22;1518;52.408;13.060;2022-10-17T02:21:45;13.50;99.90
3017;DHT22;1518;52.408;13.060;2022-10-17T02:24:45;13.40;99.90
3017;DHT22;1518;52.408;13.060;2022-10-17T02:27:42;13.40;99.90
3017;DHT22;1518;52.408;13.060;2022-10-17T02:30:35;13.40;99.90
3017;DHT22;1518;52.408;13.060;2022-10-17T02:33:29;13.40;99.90
3017;DHT22;1518;52.408;13.060;2022-10-17T02:36:20;13.40;99.90
3017;DHT22;1518;52.408;13.060;2022-10-17T02:39:12;13.40;99.90
3017;DHT22;1518;52.408;13.060;2022-10-17T02:42:03;13.40;99.90
3017;DHT22;1518;52.408;13.060;2022-10-17T02:44:53;13.40;99.90
3017;DHT22;1518;52.408;13.060;2022-10-17T02:47:49;13.40;99.90
3017;DHT22;1518;52.408;13.060;2022-10-17T02:50:45;13.50;99.90
3017;DHT22;1518;52.408;13.060;2022-10-17T02:53:38;13.50;99.90
3017;DHT22;1518;52.408;13.060;2022-10-17T02:56:34;13.50;99.90
3017;DHT22;1518;52.408;13.060;2022-10-17T02:59:25;13.50;99.90
3017;DHT22;1518;52.408;13.060;2022-10-17T03:02:14;13.50;99.90
3017;DHT22;1518;52.408;13.060;2022-10-17T03:05:02;13.50;99.90
3017;DHT22;1518;52.408;13.060;2022-10-17T03:07:50;13.70;99.90
3017;DHT22;1518;52.408;13.060;2022-10-17T03:10:39;13.60;99.90
3017;DHT22;1518;52.408;13.060;2022-10-17T03:13:29;13.60;99.90
3017;DHT22;1518;52.408;13.060;2022-10-17T03:16:20;13.60;99.90
3017;DHT22;1518;52.408;13.060;2022-10-17T03:19:09;13.70;99.90
3017;DHT22;1518;52.408;13.060;2022-10-17T03:21:57;13.60;99.90
3017;DHT22;1518;52.408;13.060;2022-10-17T03:24:45;13.60;99.90
3017;DHT22;1518;52.408;13.060;2022-10-17T03:27:33;13.60;99.90
3017;DHT22;1518;52.408;13.060;2022-10-17T03:30:22;13.60;99.90
3017;DHT22;1518;52.408;13.060;2022-10-17T03:33:10;13.60;99.90
3017;DHT22;1518;52.408;13.060;2022-10-17T03:35:58;13.60;99.90
3017;DHT22;1518;52.408;13.060;2022-10-17T03:38:47;13.60;99.90
3017;DHT22;1518;52.408;13.060;2022-10-17T03:41:35;13.60;99.90
3017;DHT22;1518;52.408;13.060;2022-10-17T03:44:23;13.60;99.90
3017;DHT22;1518;52.408;13.060;2022-10-17T03:47:12;13.60;99.90
3017;DHT22;1518;52.408;13.060;2022-10-17T03:50:00;13.70;99.90
3017;DHT22;1518;52.408;13.060;2022-10-17T03:52:49;13.70;99.90
3017;DHT22;1518;52.408;13.060;2022-10-17T03:55:37;13.70;99.90
3017;DHT22;1518;52.408;13.060;2022-10-17T03:58:25;13.70;99.90
3017;DHT22;1518;52.408;13.060;2022-10-17T04:01:15;13.80;99.90
3017;DHT22;1518;52.408;13.060;2022-10-17T04:04:04;13.80;99.90
3017;DHT22;1518;52.408;13.060;2022-10-17T04:06:52;13.80;99.90
3017;DHT22;1518;52.408;13.060;2022-10-17T04:09:41;13.80;99.90
3017;DHT22;1518;52.408;13.060;2022-10-17T04:12:29;13.70;99.90
3017;DHT22;1518;52.408;13.060;2022-10-17T04:15:17;13.70;99.90
3017;DHT22;1518;52.408;13.060;2022-10-17T04:18:05;13.70;99.90
3017;DHT22;1518;52.408;13.060;2022-10-17T04:20:55;13.60;99.90
3017;DHT22;1518;52.408;13.060;2022-10-17T04:23:43;13.60;99.90
3017;DHT22;1518;52.408;13.060;2022-10-17T04:26:31;13.60;99.90
3017;DHT22;1518;52.408;13.060;2022-10-17T04:29:19;13.50;99.90
3017;DHT22;1518;52.408;13.060;2022-10-17T04:32:08;13.50;99.90
3017;DHT22;1518;52.408;13.060;2022-10-17T04:34:56;13.50;99.90
3017;DHT22;1518;52.408;13.060;2022-10-17T04:37:45;13.50;99.90
3017;DHT22;1518;52.408;13.060;2022-10-17T04:40:33;13.50;99.90
3017;DHT22;1518;52.408;13.060;2022-10-17T04:43:21;13.50;99.90
3017;DHT22;1518;52.408;13.060;2022-10-17T04:46:10;13.50;99.90
3017;DHT22;1518;52.408;13.060;2022-10-17T04:48:59;13.50;99.90
3017;DHT22;1518;52.408;13.060;2022-10-17T04:51:47;13.40;99.90
3017;DHT22;1518;52.408;13.060;2022-10-17T04:54:36;13.40;99.90
3017;DHT22;1518;52.408;13.060;2022-10-17T04:57:24;13.40;99.90
3017;DHT22;1518;52.408;13.060;2022-10-17T05:00:13;13.40;99.90
3017;DHT22;1518;52.408;13.060;2022-10-17T05:03:01;13.40;99.90
3017;DHT22;1518;52.408;13.060;2022-10-17T05:05:50;13.40;99.90
3017;DHT22;1518;52.408;13.060;2022-10-17T05:08:39;13.60;99.90
3017;DHT22;1518;52.408;13.060;2022-10-17T05:11:29;13.40;99.90
3017;DHT22;1518;52.408;13.060;2022-10-17T05:14:17;13.30;99.90
3017;DHT22;1518;52.408;13.060;2022-10-17T05:17:05;13.30;99.90
3017;DHT22;1518;52.408;13.060;2022-10-17T05:19:53;13.40;99.90
3017;DHT22;1518;52.408;13.060;2022-10-17T05:22:41;13.40;99.90
3017;DHT22;1518;52.408;13.060;2022-10-17T05:25:29;13.30;99.90
3017;DHT22;1518;52.408;13.060;2022-10-17T05:28:19;13.30;99.90
3017;DHT22;1518;52.408;13.060;2022-10-17T05:31:08;13.30;99.90
3017;DHT22;1518;52.408;13.060;2022-10-17T05:33:59;13.30;99.90
3017;DHT22;1518;52.408;13.060;2022-10-17T05:36:47;13.30;99.90
3017;DHT22;1518;52.408;13.060;2022-10-17T05:39:35;13.30;99.90
3017;DHT22;1518;52.408;13.060;2022-10-17T05:42:23;13.30;99.90
3017;DHT22;1518;52.408;13.060;2022-10-17T05:45:14;13.30;99.90
3017;DHT22;1518;52.408;13.060;2022-10-17T05:48:02;13.20;99.90
3017;DHT22;1518;52.408;13.060;2022-10-17T05:50:57;13.30;99.90
3017;DHT22;1518;52.408;13.060;2022-10-17T05:53:45;13.30;99.90
3017;DHT22;1518;52.408;13.060;2022-10-17T05:56:34;13.30;99.90
3017;DHT22;1518;52.408;13.060;2022-10-17T05:59:24;13.30;99.90
3017;DHT22;1518;52.408;13.060;2022-10-17T06:02:13;13.40;99.90
3017;DHT22;1518;52.408;13.060;2022-10-17T06:05:01;13.40;99.90
3017;DHT22;1518;52.408;13.060;2022-10-17T06:07:49;13.40;99.90
3017;DHT22;1518;52.408;13.060;2022-10-17T06:10:38;13.40;99.90
3017;DHT22;1518;52.408;13.060;2022-10-17T06:13:26;13.50;99.90
3017;DHT22;1518;52.408;13.060;2022-10-17T06:16:14;13.50;99.90
3017;DHT22;1518;52.408;13.060;2022-10-17T06:19:04;13.60;99.90
3017;DHT22;1518;52.408;13.060;2022-10-17T06:21:52;13.60;99.90
3017;DHT22;1518;52.408;13.060;2022-10-17T06:24:40;13.70;99.90
3017;DHT22;1518;52.408;13.060;2022-10-17T06:27:29;13.70;99.90
3017;DHT22;1518;52.408;13.060;2022-10-17T06:30:17;13.70;99.90
3017;DHT22;1518;52.408;13.060;2022-10-17T06:33:05;13.70;99.90
3017;DHT22;1518;52.408;13.060;2022-10-17T06:35:55;13.80;99.90
3017;DHT22;1518;52.408;13.060;2022-10-17T06:38:43;13.80;99.90
3017;DHT22;1518;52.408;13.060;2022-10-17T06:41:31;13.90;99.90
3017;DHT22;1518;52.408;13.060;2022-10-17T06:44:20;14.00;99.90
3017;DHT22;1518;52.408;13.060;2022-10-17T06:47:08;14.00;99.90
3017;DHT22;1518;52.408;13.060;2022-10-17T06:49:58;14.10;99.90
3017;DHT22;1518;52.408;13.060;2022-10-17T06:52:49;14.10;99.90
3017;DHT22;1518;52.408;13.060;2022-10-17T06:55:37;14.20;99.90
3017;DHT22;1518;52.408;13.060;2022-10-17T06:58:26;14.20;99.90
3017;DHT22;1518;52.408;13.060;2022-10-17T07:01:14;14.20;99.90
3017;DHT22;1518;52.408;13.060;2022-10-17T07:04:02;14.30;99.90
3017;DHT22;1518;52.408;13.060;2022-10-17T07:06:50;14.40;99.90
3017;DHT22;1518;52.408;13.060;2022-10-17T07:09:39;14.40;99.90
3017;DHT22;1518;52.408;13.060;2022-10-17T07:12:27;14.50;99.90
3017;DHT22;1518;52.408;13.060;2022-10-17T07:15:16;14.50;99.90
3017;DHT22;1518;52.408;13.060;2022-10-17T07:18:04;14.50;99.90
3017;DHT22;1518;52.408;13.060;2022-10-17T07:20:53;14.60;99.90
3017;DHT22;1518;52.408;13.060;2022-10-17T07:23:41;14.60;99.90
3017;DHT22;1518;52.408;13.060;2022-10-17T07:26:30;14.70;99.90
3017;DHT22;1518;52.408;13.060;2022-10-17T07:29:18;15.10;99.90
3017;DHT22;1518;52.408;13.060;2022-10-17T07:32:06;14.90;99.90
3017;DHT22;1518;52.408;13.060;2022-10-17T07:34:55;14.90;99.90
3017;DHT22;1518;52.408;13.060;2022-10-17T07:37:43;15.00;99.90
3017;DHT22;1518;52.408;13.060;2022-10-17T07:40:31;15.10;99.90
3017;DHT22;1518;52.408;13.060;2022-10-17T07:43:21;15.20;99.90
3017;DHT22;1518;52.408;13.060;2022-10-17T07:46:09;15.30;99.90
3017;DHT22;1518;52.408;13.060;2022-10-17T07:48:58;15.40;99.90
3017;DHT22;1518;52.408;13.060;2022-10-17T07:51:46;15.50;99.90
3017;DHT22;1518;52.408;13.060;2022-10-17T07:54:34;15.60;99.90
3017;DHT22;1518;52.408;13.060;2022-10-17T07:57:23;15.70;99.90
3017;DHT22;1518;52.408;13.060;2022-10-17T08:00:12;15.80;99.90
3017;DHT22;1518;52.408;13.060;2022-10-17T08:03:01;15.90;99.90
3017;DHT22;1518;52.408;13.060;2022-10-17T08:05:49;16.00;99.90
3017;DHT22;1518;52.408;13.060;2022-10-17T08:08:37;16.10;99.90
3017;DHT22;1518;52.408;13.060;2022-10-17T08:11:25;16.30;99.90
3017;DHT22;1518;52.408;13.060;2022-10-17T08:14:14;16.30;99.90
3017;DHT22;1518;52.408;13.060;2022-10-17T08:17:04;16.40;99.90
3017;DHT22;1518;52.408;13.060;2022-10-17T08:19:52;16.50;99.90
3017;DHT22;1518;52.408;13.060;2022-10-17T08:22:40;16.50;99.90
3017;DHT22;1518;52.408;13.060;2022-10-17T08:25:28;16.60;99.90
3017;DHT22;1518;52.408;13.060;2022-10-17T08:28:16;16.70;99.90
3017;DHT22;1518;52.408;13.060;2022-10-17T08:31:06;16.80;99.90
3017;DHT22;1518;52.408;13.060;2022-10-17T08:33:56;16.80;99.90
3017;DHT22;1518;52.408;13.060;2022-10-17T08:36:44;16.90;99.90
3017;DHT22;1518;52.408;13.060;2022-10-17T08:39:32;17.00;99.90
3017;DHT22;1518;52.408;13.060;2022-10-17T08:42:33;17.00;99.90
3017;DHT22;1518;52.408;13.060;2022-10-17T08:45:31;17.10;99.90
3017;DHT22;1518;52.408;13.060;2022-10-17T08:48:23;17.20;99.90
3017;DHT22;1518;52.408;13.060;2022-10-17T08:51:16;17.30;99.90
3017;DHT22;1518;52.408;13.060;2022-10-17T08:54:11;17.40;99.90
3017;DHT22;1518;52.408;13.060;2022-10-17T08:57:01;17.50;99.90
3017;DHT22;1518;52.408;13.060;2022-10-17T08:59:51;17.60;99.90
3017;DHT22;1518;52.408;13.060;2022-10-17T09:02:49;17.60;99.90
3017;DHT22;1518;52.408;13.060;2022-10-17T09:05:47;17.70;99.90
3017;DHT22;1518;52.408;13.060;2022-10-17T09:08:52;17.80;99.90
3017;DHT22;1518;52.408;13.060;2022-10-17T09:11:56;17.90;99.90
3017;DHT22;1518;52.408;13.060;2022-10-17T09:15:02;18.00;99.90
3017;DHT22;1518;52.408;13.060;2022-10-17T09:17:54;18.20;99.90
3017;DHT22;1518;52.408;13.060;2022-10-17T09:20:48;18.20;99.90
3017;DHT22;1518;52.408;13.060;2022-10-17T09:23:44;18.30;99.90
3017;DHT22;1518;52.408;13.060;2022-10-17T09:26:34;18.40;99.90
3017;DHT22;1518;52.408;13.060;2022-10-17T09:29:24;18.50;99.90
3017;DHT22;1518;52.408;13.060;2022-10-17T09:32:23;18.50;99.90
3017;DHT22;1518;52.408;13.060;2022-10-17T09:35:12;18.60;99.90
3017;DHT22;1518;52.408;13.060;2022-10-17T09:38:01;18.70;99.90
3017;DHT22;1518;52.408;13.060;2022-10-17T09:40:53;18.80;99.90
3017;DHT22;1518;52.408;13.060;2022-10-17T09:43:43;18.80;99.90
3017;DHT22;1518;52.408;13.060;2022-10-17T09:46:36;18.90;99.90
3017;DHT22;1518;52.408;13.060;2022-10-17T09:49:32;19.10;99.90
3017;DHT22;1518;52.408;13.060;2022-10-17T09:52:25;19.20;99.90
3017;DHT22;1518;52.408;13.060;2022-10-17T09:55:17;19.30;99.90
3017;DHT22;1518;52.408;13.060;2022-10-17T09:58:09;19.40;99.90
3017;DHT22;1518;52.408;13.060;2022-10-17T10:01:14;19.50;99.90
3017;DHT22;1518;52.408;13.060;2022-10-17T10:04:11;19.70;99.90
3017;DHT22;1518;52.408;13.060;2022-10-17T10:07:02;19.90;99.90
3017;DHT22;1518;52.408;13.060;2022-10-17T10:09:50;20.00;99.90
3017;DHT22;1518;52.408;13.060;2022-10-17T10:12:39;20.10;99.90
3017;DHT22;1518;52.408;13.060;2022-10-17T10:15:34;20.10;99.90
3017;DHT22;1518;52.408;13.060;2022-10-17T10:18:34;20.20;99.90
3017;DHT22;1518;52.408;13.060;2022-10-17T10:21:24;20.10;99.90
3017;DHT22;1518;52.408;13.060;2022-10-17T10:24:12;20.10;99.90
3017;DHT22;1518;52.408;13.060;2022-10-17T10:27:02;20.20;99.90
3017;DHT22;1518;52.408;13.060;2022-10-17T10:29:52;20.30;99.90
3017;DHT22;1518;52.408;13.060;2022-10-17T10:32:45;20.40;99.90
3017;DHT22;1518;52.408;13.060;2022-10-17T10:35:35;20.50;99.90
3017;DHT22;1518;52.408;13.060;2022-10-17T10:38:24;20.60;99.90
3017;DHT22;1518;52.408;13.060;2022-10-17T10:41:12;20.60;99.90
3017;DHT22;1518;52.408;13.060;2022-10-17T10:44:00;20.70;99.90
3017;DHT22;1518;52.408;13.060;2022-10-17T10:47:05;20.70;99.90
3017;DHT22;1518;52.408;13.060;2022-10-17T10:50:15;20.80;99.90
3017;DHT22;1518;52.408;13.060;2022-10-17T10:53:13;20.90;99.90
3017;DHT22;1518;52.408;13.060;2022-10-17T10:56:06;21.00;99.90
3017;DHT22;1518;52.408;13.060;2022-10-17T10:58:59;21.00;99.90
3017;DHT22;1518;52.408;13.060;2022-10-17T11:01:52;21.10;99.90
3017;DHT22;1518;52.408;13.060;2022-10-17T11:04:45;21.00;99.90
3017;DHT22;1518;52.408;13.060;2022-10-17T11:07:40;21.30;99.90
3017;DHT22;1518;52.408;13.060;2022-10-17T11:10:34;21.30;99.90
3017;DHT22;1518;52.408;13.060;2022-10-17T11:13:27;21.40;99.90
3017;DHT22;1518;52.408;13.060;2022-10-17T11:16:24;21.40;99.90
3017;DHT22;1518;52.408;13.060;2022-10-17T11:19:20;21.40;99.90
3017;DHT22;1518;52.408;13.060;2022-10-17T11:22:15;21.40;99.90
3017;DHT22;1518;52.408;13.060;2022-10-17T11:25:13;21.50;99.90
3017;DHT22;1518;52.408;13.060;2022-10-17T11:28:11;21.50;99.90
3017;DHT22;1518;52.408;13.060;2022-10-17T11:31:02;21.50;99.90
3017;DHT22;1518;52.408;13.060;2022-10-17T11:33:57;21.60;99.90
3017;DHT22;1518;52.408;13.060;2022-10-17T11:36:50;21.60;99.90
3017;DHT22;1518;52.408;13.060;2022-10-17T11:39:42;21.70;99.90
3017;DHT22;1518;52.408;13.060;2022-10-17T11:42:41;21.80;99.90
3017;DHT22;1518;52.408;13.060;2022-10-17T11:45:38;21.90;99.90
3017;DHT22;1518;52.408;13.060;2022-10-17T11:48:30;21.90;99.90
3017;DHT22;1518;52.408;13.060;2022-10-17T11:51:21;22.00;99.90
3017;DHT22;1518;52.408;13.060;2022-10-17T11:54:32;22.10;99.90
3017;DHT22;1518;52.408;13.060;2022-10-17T11:57:36;22.10;99.90
3017;DHT22;1518;52.408;13.060;2022-10-17T12:00:37;22.20;99.90
3017;DHT22;1518;52.408;13.060;2022-10-17T12:03:47;22.20;99.90
3017;DHT22;1518;52.408;13.060;2022-10-17T12:06:44;22.30;99.90
3017;DHT22;1518;52.408;13.060;2022-10-17T12:09:39;22.30;99.90
3017;DHT22;1518;52.408;13.060;2022-10-17T12:12:30;22.30;99.90
3017;DHT22;1518;52.408;13.060;2022-10-17T12:15:30;22.40;99.90
3017;DHT22;1518;52.408;13.060;2022-10-17T12:18:23;22.40;99.90
3017;DHT22;1518;52.408;13.060;2022-10-17T12:21:11;22.50;99.90
3017;DHT22;1518;52.408;13.060;2022-10-17T12:23:59;22.50;99.90
3017;DHT22;1518;52.408;13.060;2022-10-17T12:26:47;22.60;99.90
3017;DHT22;1518;52.408;13.060;2022-10-17T12:29:39;22.60;99.90
3017;DHT22;1518;52.408;13.060;2022-10-17T12:32:29;22.70;99.90
3017;DHT22;1518;52.408;13.060;2022-10-17T12:35:38;22.80;99.90
3017;DHT22;1518;52.408;13.060;2022-10-17T12:38:26;22.90;99.90
3017;DHT22;1518;52.408;13.060;2022-10-17T12:41:15;22.90;99.90
3017;DHT22;1518;52.408;13.060;2022-10-17T12:44:35;23.00;99.90
3017;DHT22;1518;52.408;13.060;2022-10-17T12:47:36;23.10;99.90
3017;DHT22;1518;52.408;13.060;2022-10-17T12:50:58;23.20;99.90
3017;DHT22;1518;52.408;13.060;2022-10-17T12:54:11;23.20;99.90
3017;DHT22;1518;52.408;13.060;2022-10-17T12:57:01;23.20;99.90
3017;DHT22;1518;52.408;13.060;2022-10-17T12:59:51;23.20;99.90
3017;DHT22;1518;52.408;13.060;2022-10-17T13:02:44;23.20;99.90
3017;DHT22;1518;52.408;13.060;2022-10-17T13:05:35;23.30;99.90
3017;DHT22;1518;52.408;13.060;2022-10-17T13:08:26;23.40;99.90
3017;DHT22;1518;52.408;13.060;2022-10-17T13:11:21;23.50;99.90
3017;DHT22;1518;52.408;13.060;2022-10-17T13:14:11;23.50;99.90
3017;DHT22;1518;52.408;13.060;2022-10-17T13:17:03;23.60;99.90
3017;DHT22;1518;52.408;13.060;2022-10-17T13:19:52;23.70;99.90
3017;DHT22;1518;52.408;13.060;2022-10-17T13:22:43;23.70;99.90
3017;DHT22;1518;52.408;13.060;2022-10-17T13:25:31;23.80;99.90
3017;DHT22;1518;52.408;13.060;2022-10-17T13:28:25;23.70;99.90
3017;DHT22;1518;52.408;13.060;2022-10-17T13:31:27;23.60;99.90
3017;DHT22;1518;52.408;13.060;2022-10-17T13:34:20;23.50;99.90
3017;DHT22;1518;52.408;13.060;2022-10-17T13:37:11;23.50;99.90
3017;DHT22;1518;52.408;13.060;2022-10-17T13:40:00;23.50;99.90
3017;DHT22;1518;52.408;13.060;2022-10-17T13:43:14;23.80;99.90
3017;DHT22;1518;52.408;13.060;2022-10-17T13:46:03;23.90;99.90
3017;DHT22;1518;52.408;13.060;2022-10-17T13:49:18;24.00;99.90
3017;DHT22;1518;52.408;13.060;2022-10-17T13:52:15;24.10;99.90
3017;DHT22;1518;52.408;13.060;2022-10-17T13:55:08;24.50;99.90
3017;DHT22;1518;52.408;13.060;2022-10-17T13:58:14;25.10;99.90
3017;DHT22;1518;52.408;13.060;2022-10-17T14:01:03;25.60;99.90
3017;DHT22;1518;52.408;13.060;2022-10-17T14:03:51;25.60;99.90
3017;DHT22;1518;52.408;13.060;2022-10-17T14:06:55;25.70;99.90
3017;DHT22;1518;52.408;13.060;2022-10-17T14:09:45;25.70;99.90
3017;DHT22;1518;52.408;13.060;2022-10-17T14:12:33;25.70;99.90
3017;DHT22;1518;52.408;13.060;2022-10-17T14:15:25;25.80;99.90
3017;DHT22;1518;52.408;13.060;2022-10-17T14:18:18;26.10;99.90
3017;DHT22;1518;52.408;13.060;2022-10-17T14:21:06;26.40;99.90
3017;DHT22;1518;52.408;13.060;2022-10-17T14:24:26;26.60;99.90
3017;DHT22;1518;52.408;13.060;2022-10-17T14:27:27;27.00;99.90
3017;DHT22;1518;52.408;13.060;2022-10-17T14:30:31;27.00;99.90
3017;DHT22;1518;52.408;13.060;2022-10-17T14:33:44;26.90;99.90
3017;DHT22;1518;52.408;13.060;2022-10-17T14:36:38;26.50;99.90
3017;DHT22;1518;52.408;13.060;2022-10-17T14:39:29;26.00;99.90
3017;DHT22;1518;52.408;13.060;2022-10-17T14:42:19;25.50;99.90
3017;DHT22;1518;52.408;13.060;2022-10-17T14:45:12;25.10;99.90
3017;DHT22;1518;52.408;13.060;2022-10-17T14:48:10;24.70;99.90
3017;DHT22;1518;52.408;13.060;2022-10-17T14:51:06;24.50;99.90
3017;DHT22;1518;52.408;13.060;2022-10-17T14:54:16;24.30;99.90
3017;DHT22;1518;52.408;13.060;2022-10-17T14:57:14;24.20;99.90
3017;DHT22;1518;52.408;13.060;2022-10-17T15:00:04;24.10;99.90
3017;DHT22;1518;52.408;13.060;2022-10-17T15:02:54;24.00;99.90
3017;DHT22;1518;52.408;13.060;2022-10-17T15:05:44;24.00;99.90
3017;DHT22;1518;52.408;13.060;2022-10-17T15:08:33;24.00;99.90
3017;DHT22;1518;52.408;13.060;2022-10-17T15:11:21;24.00;99.90
3017;DHT22;1518;52.408;13.060;2022-10-17T15:14:11;23.90;99.90
3017;DHT22;1518;52.408;13.060;2022-10-17T15:16:59;23.80;99.90
3017;DHT22;1518;52.408;13.060;2022-10-17T15:19:48;23.80;99.90
3017;DHT22;1518;52.408;13.060;2022-10-17T15:22:37;23.70;99.90
3017;DHT22;1518;52.408;13.060;2022-10-17T15:25:26;23.70;99.90
3017;DHT22;1518;52.408;13.060;2022-10-17T15:28:14;23.60;99.90
3017;DHT22;1518;52.408;13.060;2022-10-17T15:31:04;23.50;99.90
3017;DHT22;1518;52.408;13.060;2022-10-17T15:33:52;23.40;99.90
3017;DHT22;1518;52.408;13.060;2022-10-17T15:36:47;23.40;99.90
3017;DHT22;1518;52.408;13.060;2022-10-17T15:39:36;23.30;99.90
3017;DHT22;1518;52.408;13.060;2022-10-17T15:42:27;23.20;99.90
3017;DHT22;1518;52.408;13.060;2022-10-17T15:45:17;23.10;99.90
3017;DHT22;1518;52.408;13.060;2022-10-17T15:48:18;23.00;99.90
3017;DHT22;1518;52.408;13.060;2022-10-17T15:51:09;23.00;99.90
3017;DHT22;1518;52.408;13.060;2022-10-17T15:53:57;22.90;99.90
3017;DHT22;1518;52.408;13.060;2022-10-17T15:56:50;22.80;99.90
3017;DHT22;1518;52.408;13.060;2022-10-17T15:59:39;22.70;99.90
3017;DHT22;1518;52.408;13.060;2022-10-17T16:02:28;22.60;99.90
3017;DHT22;1518;52.408;13.060;2022-10-17T16:05:19;22.50;99.90
3017;DHT22;1518;52.408;13.060;2022-10-17T16:08:09;22.40;99.90
3017;DHT22;1518;52.408;13.060;2022-10-17T16:10:57;22.30;99.90
3017;DHT22;1518;52.408;13.060;2022-10-17T16:13:49;22.20;99.90
3017;DHT22;1518;52.408;13.060;2022-10-17T16:16:38;22.20;99.90
3017;DHT22;1518;52.408;13.060;2022-10-17T16:19:26;22.10;99.90
3017;DHT22;1518;52.408;13.060;2022-10-17T16:22:19;22.00;99.90
3017;DHT22;1518;52.408;13.060;2022-10-17T16:25:19;21.90;99.90
3017;DHT22;1518;52.408;13.060;2022-10-17T16:28:08;21.90;99.90
3017;DHT22;1518;52.408;13.060;2022-10-17T16:30:57;21.80;99.90
3017;DHT22;1518;52.408;13.060;2022-10-17T16:33:47;21.70;99.90
3017;DHT22;1518;52.408;13.060;2022-10-17T16:36:35;21.60;99.90
3017;DHT22;1518;52.408;13.060;2022-10-17T16:39:24;21.50;99.90
3017;DHT22;1518;52.408;13.060;2022-10-17T16:42:14;21.50;99.90
3017;DHT22;1518;52.408;13.060;2022-10-17T16:45:03;21.40;99.90
3017;DHT22;1518;52.408;13.060;2022-10-17T16:47:51;21.40;99.90
3017;DHT22;1518;52.408;13.060;2022-10-17T16:50:40;21.30;99.90
3017;DHT22;1518;52.408;13.060;2022-10-17T16:53:28;21.30;99.90
3017;DHT22;1518;52.408;13.060;2022-10-17T16:56:23;21.20;99.90
3017;DHT22;1518;52.408;13.060;2022-10-17T16:59:11;21.10;99.90
3017;DHT22;1518;52.408;13.060;2022-10-17T17:01:59;21.10;99.90
3017;DHT22;1518;52.408;13.060;2022-10-17T17:04:47;21.00;99.90
3017;DHT22;1518;52.408;13.060;2022-10-17T17:07:35;20.90;99.90
3017;DHT22;1518;52.408;13.060;2022-10-17T17:10:24;20.90;99.90
3017;DHT22;1518;52.408;13.060;2022-10-17T17:13:13;20.90;99.90
3017;DHT22;1518;52.408;13.060;2022-10-17T17:16:03;20.80;99.90
3017;DHT22;1518;52.408;13.060;2022-10-17T17:18:56;20.80;99.90
3017;DHT22;1518;52.408;13.060;2022-10-17T17:21:45;20.90;99.90
3017;DHT22;1518;52.408;13.060;2022-10-17T17:24:36;20.80;99.90
3017;DHT22;1518;52.408;13.060;2022-10-17T17:27:26;20.80;99.90
3017;DHT22;1518;52.408;13.060;2022-10-17T17:30:17;20.70;99.90
3017;DHT22;1518;52.408;13.060;2022-10-17T17:33:05;20.70;99.90
3017;DHT22;1518;52.408;13.060;2022-10-17T17:35:54;20.60;99.90
3017;DHT22;1518;52.408;13.060;2022-10-17T17:38:42;20.50;99.90
3017;DHT22;1518;52.408;13.060;2022-10-17T17:41:31;20.40;99.90
3017;DHT22;1518;52.408;13.060;2022-10-17T17:44:19;20.30;99.90
3017;DHT22;1518;52.408;13.060;2022-10-17T17:47:09;20.20;99.90
3017;DHT22;1518;52.408;13.060;2022-10-17T17:49:57;20.20;99.90
3017;DHT22;1518;52.408;13.060;2022-10-17T17:52:45;20.10;99.90
3017;DHT22;1518;52.408;13.060;2022-10-17T17:55:36;20.10;99.90
3017;DHT22;1518;52.408;13.060;2022-10-17T17:58:24;20.10;99.90
3017;DHT22;1518;52.408;13.060;2022-10-17T18:01:14;20.00;99.90
3017;DHT22;1518;52.408;13.060;2022-10-17T18:04:07;20.00;99.90
3017;DHT22;1518;52.408;13.060;2022-10-17T18:06:55;19.90;99.90
3017;DHT22;1518;52.408;13.060;2022-10-17T18:09:43;19.90;99.90
3017;DHT22;1518;52.408;13.060;2022-10-17T18:12:32;19.80;99.90
3017;DHT22;1518;52.408;13.060;2022-10-17T18:15:20;19.80;99.90
3017;DHT22;1518;52.408;13.060;2022-10-17T18:18:08;19.70;99.90
3017;DHT22;1518;52.408;13.060;2022-10-17T18:21:00;19.60;99.90
3017;DHT22;1518;52.408;13.060;2022-10-17T18:23:48;19.60;99.90